Miami, FL

9:36 PM EDT on September 02, 2014 (GMT -0400)
JA Richmond West | Change Station
CLOSE
Current Station
Personal Weather Station
Location: Miami, FL
Elevation: 7 ft
Nearby Weather Stations

Elev 7 ft 25.61 °N, 80.43 °W | Updated 16 seconds ago

Partly Cloudy
Partly Cloudy
77.4 °F
Feels Like 79 °F
N
1.7
Wind Variable Wind from SE
Gusts 2.7 mph

Today
High -- | Low -- °F
--% Chance of Precip.
Yesterday
High -- | Low -- °F
Precip. -- in
7:02 AM 7:39 PM
First Quarter, 57% visible
Pressure 30.03 in
Visibility 10.0 miles
Clouds Few 2500 ft
Heat Index 79 °F
Dew Point 73 °F
Humidity 87%
Rainfall 0.00 in
Snow Depth Not available.
UV 0 out of 12
Pollen 4.20 out of 12
PM2.5 Good
Flu Activity Not available.
METAR KTMB 030053Z 36006KT 10SM FEW025 26/23 A3003 RMK AO2 SLP167 T02610228

More Conditions Fewer Conditions

Pressure 30.03 in
Visibility 10.0 miles
Clouds Few 2500 ft
Heat Index 79 °F
Dew Point 73 °F
Humidity 87%
Rainfall 0.00 in
Snow Depth Not available.
UV 0 out of 12
Pollen 4.20 out of 12
PM2.5 Good
Flu Activity Not available.
METAR KTMB 030053Z 36006KT 10SM FEW025 26/23 A3003 RMK AO2 SLP167 T02610228

More Conditions Fewer Conditions

Nowcast | as of 7:44 PM EDT on September 2, 2014

Isolated to scattered showers and possibly a thunderstorm, will move across Southeast Florida this evening. Their movement is to the west between 10 and 15 miles per hour. Expect up to a half of an inch of rain with these showers. It is possible to have locally heavier amounts of up to an inch.

×

10-Day Weather Forecast

Almanac

Astronomy

Sep. 02, 2014 Rise Set
Actual Time 7:02 AM EDT 7:39 PM EDT
Civil Twilight 6:39 AM EDT 8:02 PM EDT
Nautical Twilight 6:11 AM EDT 8:30 PM EDT
Astronomical Twilight 5:44 AM EDT 8:58 PM EDT
Moon 2:03 PM EDT (9/2) 12:20 AM EDT (9/2)
Length of Visible Light 13h 23m
Length of Day
12h 37m
Tomorrow will be 1m 27s shorter.
First Quarter, 57% of the Moon is Illuminated
Today
First Quarter
Sep 8
Full
Sep 15
Last Quarter
Sep 24
New
Oct 1
First Quarter

Today's Extremes

State Highs State Lows

Community

WunderPhotos

Upload Photos

1,749,829 photos uploaded!

Nearby

Air Quality

  Air Quality AQ Index Pollutant
Yesterday Good
PM2.5
Yesterday Good
OZONE
Current Good
PM2.5
Tuesday Moderate
PM2.5
Tuesday Good
OZONE
Wednesday Good
OZONE
Wednesday Good
PM2.5

Snow Depth

Station Depth Elevation
No new snow has been reported.

Earthquake Activity

City Distance Mag. Time & Date
No recent earthquake activity has been reported nearby.
Minimum magnitude displayed is 2.5.

Coastal Water Temperatures

Place Temperature
Virginia Key, FL 88.0 °F

Nearby Weather Stations